createdAt,value
2022-08-22T00:01:31.138Z,100478.25
2022-08-22T00:02:54.996Z,100470.91
2022-08-22T00:02:57.375Z,100469.84
2022-08-22T00:02:58.997Z,100459.28
2022-08-22T00:04:05.117Z,100483.53
2022-08-22T00:06:38.582Z,100478.50
2022-08-22T00:09:20.214Z,100482.72
2022-08-22T00:11:52.416Z,100475.88
2022-08-22T00:14:23.418Z,100475.09
2022-08-22T00:16:56.060Z,100476.13
2022-08-22T00:19:27.320Z,100479.56
2022-08-22T00:21:58.919Z,100475.09
2022-08-22T00:24:30.891Z,100474.28
2022-08-22T00:27:03.065Z,100481.41
2022-08-22T00:29:34.738Z,100473.50
2022-08-22T00:32:07.885Z,100475.34
2022-08-22T00:34:41.599Z,100477.19
2022-08-22T00:37:16.731Z,100473.75
2022-08-22T00:39:51.289Z,100479.03
2022-08-22T00:42:35.585Z,100472.97
2022-08-22T00:45:24.659Z,100472.97
2022-08-22T00:47:58.099Z,100470.34
2022-08-22T00:50:39.426Z,100476.41
2022-08-22T00:53:31.799Z,100475.59
2022-08-22T00:56:12.226Z,100469.81
2022-08-22T00:58:55.252Z,100471.66
2022-08-22T01:01:27.695Z,100472.44
2022-08-22T01:04:20.742Z,100468.22
2022-08-22T01:06:58.938Z,100470.06
2022-08-22T01:09:36.310Z,100469.28
2022-08-22T01:12:17.156Z,100467.44
2022-08-22T01:14:49.054Z,100469.28
2022-08-22T01:17:30.498Z,100468.47
2022-08-22T01:20:16.442Z,100464.25
2022-08-22T01:23:06.368Z,100467.69
2022-08-22T01:25:51.481Z,100470.06
2022-08-22T01:28:45.188Z,100468.75
2022-08-22T01:31:31.932Z,100476.66
2022-08-22T01:34:21.172Z,100481.66
2022-08-22T01:37:06.259Z,100486.13
2022-08-22T01:39:41.805Z,100483.75
2022-08-22T01:42:31.076Z,100479.28
2022-08-22T01:45:18.986Z,100482.72
2022-08-22T01:47:51.758Z,100483.75
2022-08-22T01:50:24.607Z,100484.00
2022-08-22T01:53:00.500Z,100485.59
2022-08-22T01:55:32.958Z,100486.41
2022-08-22T01:58:03.787Z,100480.59
2022-08-22T02:00:34.507Z,100476.38
2022-08-22T02:03:14.232Z,100479.00
2022-08-22T02:05:51.252Z,100483.22
2022-08-22T02:08:28.547Z,100476.38
2022-08-22T02:11:01.388Z,100482.69
2022-08-22T02:13:44.637Z,100485.31
2022-08-22T02:16:15.748Z,100481.63
2022-08-22T02:18:50.918Z,100482.69
2022-08-22T02:21:22.796Z,100482.69
2022-08-22T02:23:56.876Z,100487.16
2022-08-22T02:26:28.198Z,100483.75
2022-08-22T02:28:59.190Z,100477.69
2022-08-22T02:31:36.662Z,100486.63
2022-08-22T02:34:18.837Z,100487.44
2022-08-22T02:36:49.454Z,100489.00
2022-08-22T02:39:26.791Z,100490.06
2022-08-22T02:41:58.898Z,100490.28
2022-08-22T02:44:30.928Z,100491.09
2022-08-22T02:47:05.247Z,100491.09
2022-08-22T02:49:43.615Z,100490.06
2022-08-22T02:52:15.097Z,100497.97
2022-08-22T02:54:48.673Z,100501.63
2022-08-22T02:57:20.528Z,100503.22
2022-08-22T03:00:31.289Z,100508.50
2022-08-22T03:03:05.475Z,100501.63
2022-08-22T03:05:46.778Z,100501.63
2022-08-22T03:08:27.049Z,100511.13
2022-08-22T03:11:02.810Z,100506.09
2022-08-22T03:13:38.003Z,100514.00
2022-08-22T03:16:11.903Z,100513.22
2022-08-22T03:18:44.574Z,100522.69
2022-08-22T03:21:16.699Z,100521.91
2022-08-22T03:23:47.705Z,100526.38
2022-08-22T03:26:20.419Z,100525.31
2022-08-22T03:28:58.940Z,100527.16
2022-08-22T03:31:29.664Z,100533.22
2022-08-22T03:34:18.845Z,100534.28
2022-08-22T03:36:49.176Z,100535.06
2022-08-22T03:39:19.772Z,100537.72
2022-08-22T03:42:04.219Z,100536.91
2022-08-22T03:44:42.176Z,100535.63
2022-08-22T03:47:18.558Z,100536.19
2022-08-22T03:49:59.847Z,100539.88
2022-08-22T03:52:59.513Z,100549.09
2022-08-22T03:55:36.397Z,100541.75
2022-08-22T03:58:28.020Z,100541.22
2022-08-22T04:01:14.698Z,100545.97
2022-08-22T04:04:01.517Z,100547.31
2022-08-22T04:06:48.318Z,100551.25
2022-08-22T04:09:29.129Z,100556.28
2022-08-22T04:12:13.462Z,100550.75
2022-08-22T04:14:53.903Z,100554.69
2022-08-22T04:17:32.350Z,100549.97
2022-08-22T04:20:16.801Z,100551.56
2022-08-22T04:23:00.688Z,100553.13
2022-08-22T04:25:33.239Z,100552.63
2022-08-22T04:28:04.468Z,100556.84
2022-08-22T04:30:36.671Z,100560.25
2022-08-22T04:33:08.096Z,100558.94
2022-08-22T04:35:39.013Z,100556.84
2022-08-22T04:38:09.333Z,100563.69
2022-08-22T04:40:42.927Z,100558.19
2022-08-22T04:43:15.912Z,100562.16
2022-08-22T04:45:47.088Z,100563.22
2022-08-22T04:48:21.990Z,100557.41
2022-08-22T04:50:52.230Z,100557.41
2022-08-22T04:53:27.272Z,100559.78
2022-08-22T04:56:07.817Z,100559.78
2022-08-22T04:58:56.638Z,100566.66
2022-08-22T05:01:26.871Z,100566.13
2022-08-22T05:03:59.060Z,100571.16
2022-08-22T05:06:29.780Z,100571.72
2022-08-22T05:09:01.046Z,100574.88
2022-08-22T05:11:31.758Z,100581.72
2022-08-22T05:14:07.805Z,100574.63
2022-08-22T05:16:39.803Z,100578.84
2022-08-22T05:19:16.042Z,100583.06
2022-08-22T05:21:46.796Z,100587.28
2022-08-22T05:24:20.965Z,100590.44
2022-08-22T05:26:52.818Z,100585.97
2022-08-22T05:29:23.972Z,100587.53
2022-08-22T05:31:55.786Z,100583.84
2022-08-22T05:34:25.089Z,100589.91
2022-08-22T05:36:57.043Z,100585.97
2022-08-22T05:39:27.966Z,100583.34
2022-08-22T05:41:59.292Z,100589.13
2022-08-22T05:44:29.532Z,100588.88
2022-08-22T05:47:01.389Z,100588.88
2022-08-22T05:49:34.505Z,100589.41
2022-08-22T05:52:08.978Z,100591.25
2022-08-22T05:54:45.080Z,100582.28
2022-08-22T05:57:20.298Z,100589.94
2022-08-22T05:59:51.211Z,100588.88
2022-08-22T06:02:22.888Z,100592.31
2022-08-22T06:04:54.885Z,100585.97
2022-08-22T06:07:27.040Z,100580.44
2022-08-22T06:10:04.375Z,100582.03
2022-08-22T06:12:37.433Z,100575.69
2022-08-22T06:15:12.015Z,100578.34
2022-08-22T06:17:44.070Z,100585.19
2022-08-22T06:20:17.504Z,100581.50
2022-08-22T06:22:51.623Z,100581.25
2022-08-22T06:25:23.042Z,100582.81
2022-08-22T06:27:54.194Z,100583.63
2022-08-22T06:30:22.825Z,100582.56
2022-08-22T06:33:00.256Z,100578.88
2022-08-22T06:35:51.755Z,100580.47
2022-08-22T06:38:20.655Z,100580.97
2022-08-22T06:40:49.570Z,100579.13
2022-08-22T06:43:20.037Z,100581.50
2022-08-22T06:45:48.794Z,100582.31
2022-08-22T06:48:19.687Z,100583.09
2022-08-22T06:50:51.483Z,100583.09
2022-08-22T06:53:21.440Z,100593.38
2022-08-22T06:55:50.733Z,100586.78
2022-08-22T06:58:24.148Z,100587.59
2022-08-22T07:01:11.955Z,100580.47
2022-08-22T07:03:42.814Z,100586.53
2022-08-22T07:06:14.698Z,100587.31
2022-08-22T07:08:43.923Z,100588.94
2022-08-22T07:11:15.892Z,100589.72
2022-08-22T07:13:51.129Z,100591.31
2022-08-22T07:16:26.522Z,100590.50
2022-08-22T07:18:54.979Z,100589.47
2022-08-22T07:21:27.946Z,100588.41
2022-08-22T07:23:57.186Z,100579.44
2022-08-22T07:26:30.619Z,100586.56
2022-08-22T07:29:05.741Z,100579.44
2022-08-22T07:31:39.098Z,100586.28
2022-08-22T07:34:16.166Z,100580.22
2022-08-22T07:36:47.383Z,100584.44
2022-08-22T07:39:21.638Z,100581.00
2022-08-22T07:42:00.855Z,100572.03
2022-08-22T07:44:33.887Z,100583.38
2022-08-22T07:47:05.045Z,100572.56
2022-08-22T07:49:35.412Z,100575.22
2022-08-22T07:52:08.196Z,100571.50
2022-08-22T07:54:38.048Z,100573.91
2022-08-22T07:57:08.027Z,100567.59
2022-08-22T07:59:44.651Z,100566.53
2022-08-22T08:02:14.873Z,100560.47
2022-08-22T08:04:44.025Z,100563.88
2022-08-22T08:07:15.063Z,100563.09
2022-08-22T08:09:45.705Z,100567.31
2022-08-22T08:12:15.864Z,100559.41
2022-08-22T08:14:47.345Z,100558.59
2022-08-22T08:17:19.072Z,100557.56
2022-08-22T08:19:48.222Z,100560.97
2022-08-22T08:22:17.846Z,100563.63
2022-08-22T08:24:47.859Z,100561.78
2022-08-22T08:27:36.751Z,100567.84
2022-08-22T08:30:11.072Z,100560.72
2022-08-22T08:32:43.036Z,100556.22
2022-08-22T08:35:14.734Z,100560.44
2022-08-22T08:37:46.249Z,100567.31
2022-08-22T08:40:21.906Z,100567.31
2022-08-22T08:43:33.856Z,100569.94
2022-08-22T08:46:20.721Z,100560.97
2022-08-22T08:49:00.995Z,100564.69
2022-08-22T08:51:53.480Z,100560.19
2022-08-22T08:54:51.868Z,100552.28
2022-08-22T08:57:25.500Z,100555.69
2022-08-22T09:00:01.725Z,100548.56
2022-08-22T09:02:46.996Z,100546.72
2022-08-22T09:05:24.634Z,100541.44
2022-08-22T09:08:14.531Z,100547.50
2022-08-22T09:10:59.022Z,100553.59
2022-08-22T09:13:41.766Z,100546.47
2022-08-22T09:16:29.783Z,100549.09
2022-08-22T09:19:10.562Z,100541.97
2022-08-22T09:21:59.666Z,100537.47
2022-08-22T09:24:48.790Z,100543.56
2022-08-22T09:27:21.718Z,100542.75
2022-08-22T09:29:57.204Z,100536.69
2022-08-22T09:32:35.236Z,100533.00
2022-08-22T09:35:08.680Z,100530.34
2022-08-22T09:37:42.820Z,100535.63
2022-08-22T09:43:02.820Z,100522.97
2022-08-22T09:45:37.926Z,100523.75
2022-08-22T09:48:10.417Z,100521.91
2022-08-22T09:50:54.525Z,100529.03
2022-08-22T09:53:40.216Z,100525.59
2022-08-22T09:56:15.015Z,100530.09
2022-08-22T09:58:51.990Z,100519.28
2022-08-22T10:01:26.512Z,100526.13
2022-08-22T10:04:25.164Z,100523.25
2022-08-22T10:06:59.584Z,100517.16
2022-08-22T10:09:31.891Z,100517.69
2022-08-22T10:12:02.956Z,100511.34
2022-08-22T10:14:50.522Z,100505.78
2022-08-22T10:17:22.159Z,100509.22
2022-08-22T10:19:53.718Z,100500.00
2022-08-22T10:22:29.844Z,100505.00
2022-08-22T10:25:03.969Z,100510.81
2022-08-22T10:27:40.010Z,100502.38
2022-08-22T10:30:13.193Z,100501.03
2022-08-22T10:32:44.901Z,100496.03
2022-08-22T10:35:19.624Z,100502.63
2022-08-22T10:37:52.375Z,100502.38
2022-08-22T10:40:25.481Z,100503.94
2022-08-22T10:42:55.422Z,100496.03
2022-08-22T10:45:36.087Z,100499.19
2022-08-22T10:48:29.621Z,100505.78
2022-08-22T10:51:04.300Z,100501.84
2022-08-22T10:53:53.173Z,100493.41
2022-08-22T10:56:28.928Z,100484.94
2022-08-22T10:59:04.538Z,100475.97
2022-08-22T11:01:42.156Z,100485.97
2022-08-22T11:04:14.099Z,100486.22
2022-08-22T11:06:45.982Z,100480.44
2022-08-22T11:09:24.068Z,100468.56
2022-08-22T11:11:57.289Z,100480.13
2022-08-22T11:14:52.708Z,100484.63
2022-08-22T11:17:55.656Z,100485.41
2022-08-22T11:20:27.686Z,100481.50
2022-08-22T11:23:08.626Z,100490.47
2022-08-22T11:25:52.381Z,100479.38
2022-08-22T11:28:30.620Z,100488.63
2022-08-22T11:31:07.214Z,100487.06
2022-08-22T11:33:47.241Z,100482.31
2022-08-22T11:36:30.910Z,100486.28
2022-08-22T11:39:17.944Z,100476.25
2022-08-22T11:41:52.333Z,100473.88
2022-08-22T11:44:25.551Z,100466.22
2022-08-22T11:46:57.319Z,100471.25
2022-08-22T11:49:42.625Z,100473.34
2022-08-22T11:52:14.351Z,100471.25
2022-08-22T11:55:01.423Z,100474.41
2022-08-22T11:57:34.275Z,100476.50
2022-08-22T12:00:13.131Z,100469.13
2022-08-22T12:02:48.881Z,100465.16
2022-08-22T12:05:26.251Z,100464.91
2022-08-22T12:07:58.034Z,100460.16
2022-08-22T12:10:30.274Z,100459.09
2022-08-22T12:13:02.070Z,100457.78
2022-08-22T12:15:35.916Z,100448.53
2022-08-22T12:18:23.015Z,100454.34
2022-08-22T12:21:11.126Z,100453.81
2022-08-22T12:23:51.051Z,100458.03
2022-08-22T12:26:24.938Z,100463.31
2022-08-22T12:29:03.062Z,100454.34
2022-08-22T12:31:37.461Z,100457.53
2022-08-22T12:34:12.377Z,100459.88
2022-08-22T12:36:55.053Z,100454.88
2022-08-22T12:39:37.368Z,100454.09
2022-08-22T12:42:18.126Z,100460.44
2022-08-22T12:44:53.224Z,100460.66
2022-08-22T12:47:36.110Z,100455.91
2022-08-22T12:50:13.646Z,100455.13
2022-08-22T12:52:53.312Z,100455.66
2022-08-22T12:55:37.085Z,100444.84
2022-08-22T12:58:12.423Z,100449.88
2022-08-22T13:00:45.214Z,100447.50
2022-08-22T13:03:20.006Z,100449.09
2022-08-22T13:05:52.372Z,100455.94
2022-08-22T13:08:29.751Z,100449.63
2022-08-22T13:11:02.502Z,100445.94
2022-08-22T13:13:37.332Z,100446.72
2022-08-22T13:16:08.835Z,100448.31
2022-08-22T13:18:44.719Z,100458.31
2022-08-22T13:21:16.304Z,100449.34
2022-08-22T13:23:47.184Z,100446.44
2022-08-22T13:26:32.934Z,100445.09
2022-08-22T13:31:58.507Z,100440.06
2022-08-22T13:34:34.853Z,100442.19
2022-08-22T13:37:10.211Z,100445.34
2022-08-22T13:39:40.339Z,100451.13
2022-08-22T13:42:29.671Z,100451.38
2022-08-22T13:45:02.500Z,100454.28
2022-08-22T13:47:34.525Z,100455.59
2022-08-22T13:50:08.828Z,100455.34
2022-08-22T13:52:40.381Z,100464.28
2022-08-22T13:55:13.709Z,100460.34
2022-08-22T13:57:45.057Z,100467.72
2022-08-22T14:00:38.924Z,100464.53
2022-08-22T14:03:27.521Z,100464.00
2022-08-22T14:05:58.960Z,100464.28
2022-08-22T14:08:47.427Z,100461.09
2022-08-22T14:11:21.758Z,100461.63
2022-08-22T14:13:57.768Z,100464.25
2022-08-22T14:16:27.955Z,100466.09
2022-08-22T14:18:59.163Z,100455.56
2022-08-22T14:21:40.659Z,100446.34
2022-08-22T14:24:14.419Z,100443.97
2022-08-22T14:26:50.751Z,100445.81
2022-08-22T14:29:21.879Z,100445.81
2022-08-22T14:31:58.011Z,100446.34
2022-08-22T14:34:27.820Z,100450.31
2022-08-22T14:37:00.333Z,100449.78
2022-08-22T14:39:33.023Z,100446.09
2022-08-22T14:42:10.042Z,100442.16
2022-08-22T14:44:45.712Z,100446.91
2022-08-22T14:47:54.221Z,100444.78
2022-08-22T14:50:31.204Z,100435.84
2022-08-22T14:53:04.963Z,100454.28
2022-08-22T14:55:35.271Z,100450.59
2022-08-22T14:58:06.400Z,100447.16
2022-08-22T15:00:38.572Z,100450.06
2022-08-22T15:03:12.089Z,100449.28
2022-08-22T15:05:49.289Z,100446.38
2022-08-22T15:08:24.178Z,100438.47
2022-08-22T15:11:06.175Z,100454.28
2022-08-22T15:13:37.906Z,100449.00
2022-08-22T15:16:17.741Z,100442.16
2022-08-22T15:18:51.767Z,100442.16
2022-08-22T15:21:24.401Z,100428.97
2022-08-22T15:23:54.742Z,100424.50
2022-08-22T15:26:28.209Z,100435.84
2022-08-22T15:28:58.408Z,100434.25
2022-08-22T15:31:28.628Z,100440.06
2022-08-22T15:34:07.137Z,100442.44
2022-08-22T15:36:43.773Z,100448.22
2022-08-22T15:39:32.922Z,100441.63
2022-08-22T15:42:03.326Z,100450.06
2022-08-22T15:44:34.119Z,100454.03
2022-08-22T15:47:05.816Z,100452.97
2022-08-22T15:49:48.737Z,100454.31
2022-08-22T15:52:24.424Z,100448.75
2022-08-22T15:55:12.982Z,100459.03
2022-08-22T15:57:48.808Z,100450.91
2022-08-22T16:00:28.262Z,100453.28
2022-08-22T16:03:01.616Z,100449.59
2022-08-22T16:05:41.433Z,100448.81
2022-08-22T16:08:11.503Z,100455.38
2022-08-22T16:10:42.595Z,100450.91
2022-08-22T16:13:13.240Z,100455.13
2022-08-22T16:15:57.098Z,100454.88
2022-08-22T16:18:44.088Z,100455.66
2022-08-22T16:21:14.271Z,100459.88
2022-08-22T16:24:01.160Z,100466.72
2022-08-22T16:26:39.042Z,100461.47
2022-08-22T16:29:08.865Z,100470.16
2022-08-22T16:31:38.863Z,100462.00
2022-08-22T16:34:24.518Z,100470.69
2022-08-22T16:37:18.140Z,100479.41
2022-08-22T16:39:48.229Z,100468.06
2022-08-22T16:42:25.437Z,100473.88
2022-08-22T16:44:57.098Z,100472.31
2022-08-22T16:47:40.757Z,100465.97
2022-08-22T16:50:11.621Z,100469.41
2022-08-22T16:53:02.700Z,100477.56
2022-08-22T16:55:55.493Z,100476.50
2022-08-22T16:58:56.637Z,100472.78
2022-08-22T17:01:32.219Z,100474.91
2022-08-22T17:04:06.835Z,100480.16
2022-08-22T17:06:47.654Z,100484.41
2022-08-22T17:09:25.604Z,100491.25
2022-08-22T17:11:59.861Z,100495.47
2022-08-22T17:14:36.174Z,100503.13
2022-08-22T17:17:14.569Z,100509.19
2022-08-22T17:19:51.913Z,100516.03
2022-08-22T17:22:29.007Z,100519.47
2022-08-22T17:25:04.572Z,100520.00
2022-08-22T17:27:38.769Z,100525.81
2022-08-22T17:30:10.124Z,100526.63
2022-08-22T17:32:51.379Z,100525.03
2022-08-22T17:35:34.808Z,100539.03
2022-08-22T17:38:07.863Z,100536.91
2022-08-22T17:40:42.639Z,100532.44
2022-08-22T17:43:33.498Z,100535.59
2022-08-22T17:46:26.332Z,100536.38
2022-08-22T17:48:57.271Z,100535.06
2022-08-22T17:51:28.886Z,100546.41
2022-08-22T17:54:00.918Z,100551.44
2022-08-22T17:56:34.166Z,100550.38
2022-08-22T17:59:06.075Z,100549.06
2022-08-22T18:01:40.549Z,100546.94
2022-08-22T18:04:13.532Z,100539.81
2022-08-22T18:06:47.601Z,100533.50
2022-08-22T18:09:23.068Z,100542.72
2022-08-22T18:11:53.536Z,100550.38
2022-08-22T18:14:27.058Z,100552.75
2022-08-22T18:16:56.171Z,100554.34
2022-08-22T18:19:37.729Z,100555.91
2022-08-22T18:22:08.890Z,100555.66
2022-08-22T18:24:42.106Z,100553.03
2022-08-22T18:27:32.594Z,100545.91
2022-08-22T18:30:19.737Z,100552.75
2022-08-22T18:32:52.742Z,100556.72
2022-08-22T18:35:24.868Z,100555.66
2022-08-22T18:37:57.307Z,100558.03
2022-08-22T18:40:32.457Z,100560.94
2022-08-22T18:43:08.709Z,100563.56
2022-08-22T18:45:52.015Z,100568.59
2022-08-22T18:48:22.962Z,100577.28
2022-08-22T18:50:51.701Z,100589.44
2022-08-22T18:53:34.980Z,100591.81
2022-08-22T18:56:07.940Z,100588.94
2022-08-22T18:58:43.346Z,100586.28
2022-08-22T19:01:22.703Z,100586.03
2022-08-22T19:04:10.764Z,100585.75
2022-08-22T19:06:48.882Z,100589.19
2022-08-22T19:09:32.333Z,100596.06
2022-08-22T19:12:04.492Z,100595.78
2022-08-22T19:14:49.689Z,100600.81
2022-08-22T19:17:33.595Z,100593.69
2022-08-22T19:20:25.073Z,100594.25
2022-08-22T19:22:55.028Z,100594.25
2022-08-22T19:25:27.192Z,100590.53
2022-08-22T19:28:14.420Z,100589.75
2022-08-22T19:30:44.489Z,100594.78
2022-08-22T19:33:13.468Z,100594.78
2022-08-22T19:36:04.455Z,100596.34
2022-08-22T19:38:52.937Z,100606.91
2022-08-22T19:41:45.017Z,100614.56
2022-08-22T19:44:31.853Z,100607.44
2022-08-22T19:47:03.595Z,100609.03
2022-08-22T19:49:33.981Z,100607.19
2022-08-22T19:52:11.926Z,100609.03
2022-08-22T19:54:46.202Z,100610.59
2022-08-22T19:57:17.319Z,100606.91
2022-08-22T19:59:50.969Z,100625.13
2022-08-22T20:02:32.253Z,100625.13
2022-08-22T20:05:20.475Z,100623.28
2022-08-22T20:07:59.060Z,100627.22
2022-08-22T20:10:30.772Z,100638.06
2022-08-22T20:13:04.652Z,100639.38
2022-08-22T20:15:34.330Z,100646.50
2022-08-22T20:20:59.873Z,100644.41
2022-08-22T20:23:30.989Z,100645.97
2022-08-22T20:26:00.033Z,100647.81
2022-08-22T20:28:34.441Z,100657.06
2022-08-22T20:31:04.448Z,100659.97
2022-08-22T20:33:33.916Z,100654.41
2022-08-22T20:36:04.409Z,100650.72
2022-08-22T20:38:38.217Z,100652.31
2022-08-22T20:41:13.507Z,100653.09
2022-08-22T20:43:46.392Z,100647.81
2022-08-22T20:46:27.607Z,100646.78
2022-08-22T20:48:57.288Z,100655.47
2022-08-22T20:51:26.913Z,100654.69
2022-08-22T20:53:57.702Z,100651.78
2022-08-22T20:56:36.877Z,100650.19
2022-08-22T20:59:19.041Z,100646.50
2022-08-22T21:01:48.665Z,100651.78
2022-08-22T21:04:21.017Z,100645.72
2022-08-22T21:06:58.972Z,100649.94
2022-08-22T21:09:46.551Z,100648.09
2022-08-22T21:12:14.933Z,100646.25
2022-08-22T21:14:46.381Z,100648.09
2022-08-22T21:17:19.245Z,100643.59
2022-08-22T21:19:47.704Z,100649.66
2022-08-22T21:22:16.507Z,100648.88
2022-08-22T21:24:47.204Z,100645.19
2022-08-22T21:27:22.535Z,100650.72
2022-08-22T21:29:50.757Z,100650.47
2022-08-22T21:32:25.820Z,100651.25
2022-08-22T21:34:54.399Z,100643.34
2022-08-22T21:37:27.501Z,100645.97
2022-08-22T21:40:00.412Z,100647.56
2022-08-22T21:42:32.666Z,100647.56
2022-08-22T21:45:02.874Z,100647.56
2022-08-22T21:47:32.708Z,100648.34
2022-08-22T21:50:03.066Z,100648.34
2022-08-22T21:52:32.128Z,100648.09
2022-08-22T21:55:15.993Z,100644.66
2022-08-22T21:57:44.388Z,100645.44
2022-08-22T22:00:39.066Z,100643.59
2022-08-22T22:03:09.360Z,100643.84
2022-08-22T22:05:39.256Z,100635.94
2022-08-22T22:08:08.151Z,100631.44
2022-08-22T22:10:38.229Z,100630.66
2022-08-22T22:13:06.541Z,100622.72
2022-08-22T22:15:36.945Z,100623.53
2022-08-22T22:18:05.750Z,100634.34
2022-08-22T22:20:34.404Z,100632.50
2022-08-22T22:23:02.890Z,100637.78
2022-08-22T22:25:39.855Z,100632.50
2022-08-22T22:28:14.106Z,100639.09
2022-08-22T22:30:43.046Z,100632.25
2022-08-22T22:33:11.885Z,100634.63
2022-08-22T22:35:41.510Z,100633.84
2022-08-22T22:38:09.925Z,100639.09
2022-08-22T22:40:38.473Z,100626.97
2022-08-22T22:43:06.743Z,100631.97
2022-08-22T22:45:36.416Z,100626.97
2022-08-22T22:48:05.336Z,100619.84
2022-08-22T22:50:33.744Z,100626.97
2022-08-22T22:53:02.047Z,100610.34
2022-08-22T22:55:30.310Z,100613.75
2022-08-22T22:57:59.813Z,100620.91
2022-08-22T23:00:30.865Z,100618.00
2022-08-22T23:03:01.828Z,100616.41
2022-08-22T23:05:30.671Z,100619.84
2022-08-22T23:07:59.354Z,100616.41
2022-08-22T23:10:28.752Z,100618.00
2022-08-22T23:12:57.039Z,100614.56
2022-08-22T23:15:25.356Z,100614.28
2022-08-22T23:17:53.674Z,100625.63
2022-08-22T23:20:23.318Z,100619.56
2022-08-22T23:22:51.538Z,100631.72
2022-08-22T23:25:20.000Z,100630.13
2022-08-22T23:27:48.524Z,100638.84
2022-08-22T23:30:21.024Z,100635.41
2022-08-22T23:32:49.396Z,100641.50
2022-08-22T23:35:17.732Z,100650.19
2022-08-22T23:37:47.386Z,100654.69
2022-08-22T23:40:15.705Z,100656.53
2022-08-22T23:42:44.004Z,100655.75
2022-08-22T23:45:12.321Z,100653.91
2022-08-22T23:47:40.646Z,100657.59
2022-08-22T23:50:09.135Z,100660.22
2022-08-22T23:52:37.342Z,100656.53
2022-08-22T23:55:07.701Z,100650.72
2022-08-22T23:57:36.193Z,100662.34
